Weather History for Marysville, OH

Change the Weather History Date:

Monday, December 10, 2012

  Actual Average (KDLZ) Record (KDLZ)
Temperature  
Mean Temperature 43 °F -  
Max Temperature 54 °F 39 °F 59 °F (1946)
Min Temperature 32 °F 23 °F -10 °F (1958)
Degree Days  
Heating Degree Days 22    
Moisture  
Dew Point 36 °F    
Average Humidity 87    
Maximum Humidity 94    
Minimum Humidity 75    
Precipitation  
Precipitation 0.00 in - - ()
Sea Level Pressure  
Sea Level Pressure 29.72 in    
Wind  
Wind Speed 11 mph (WNW)    
Max Wind Speed 16 mph    
Max Gust Speed 18 mph    
Visibility 8 miles    
Events      
Averages and records for this station are not official NWS values.
T = Trace of Precipitation, MM = Missing Value Source: NWS Daily Summary

Daily Weather History Graph

Daily Weather History Graph

Search for Another Location

Airport:

Trip Planner

Search our weather history database for the weather conditions in past years. The results will help you decide how hot, cold, wet, or windy it might be!

Date:

Astronomy

Dec. 10, 2012 Rise Set
Actual Time 7:45 AM EST 5:07 PM EST
Civil Twilight 7:14 AM EST 5:38 PM EST
Nautical Twilight 6:40 AM EST 6:12 PM EST
Astronomical Twilight 6:07 AM EST 6:45 PM EST
Moon 4:27 AM EST (12/10) 2:56 PM EST (12/10)
Length of Visible Light 10h 23m
Length of Day
9h 22m
Waning Crescent, 10% of the Moon is Illuminated
Dec 10
Waning Crescent
Dec 13
New
Dec 20
First Quarter
Dec 28
Full
Jan 4
Last Quarter

Hourly Weather History & Observations

Time (EST) Temp. Windchill Dew Point Humidity Pressure Visibility Wind Dir Wind Speed Gust Speed Precip Events Conditions
12:14 AM 54.7 °F - 52.2 °F 91% 29.68 in 3.0 mi SW 13.8 mph - N/A   Overcast
12:34 AM 54.7 °F - 52.0 °F 91% 29.67 in 5.0 mi SW 13.8 mph - N/A   Overcast
12:54 AM 54.5 °F - 51.8 °F 91% 29.65 in 10.0 mi SW 11.5 mph - N/A   Overcast
1:14 AM 54.0 °F - 51.3 °F 91% 29.65 in 10.0 mi SW 10.4 mph - N/A   Mostly Cloudy
1:34 AM 53.8 °F - 50.9 °F 90% 29.65 in 10.0 mi SW 10.4 mph - N/A   Overcast
1:54 AM 53.6 °F - 50.9 °F 91% 29.65 in 10.0 mi SW 11.5 mph - N/A   Overcast
2:14 AM 53.6 °F - 50.9 °F 91% 29.66 in 4.0 mi SW 10.4 mph - N/A   Overcast
2:34 AM 53.1 °F - 50.9 °F 92% 29.66 in 3.0 mi WSW 10.4 mph - N/A   Overcast
2:54 AM 53.1 °F - 51.1 °F 93% 29.66 in 5.0 mi West 8.1 mph - N/A   Overcast
3:14 AM 50.5 °F - 47.7 °F 90% 29.65 in 4.0 mi NW 12.7 mph - N/A   Overcast
3:54 AM 49.6 °F - 47.7 °F 93% 29.66 in 2.0 mi NNW 4.6 mph - N/A   Overcast
4:14 AM 49.5 °F - 47.7 °F 94% 29.66 in 1.8 mi WNW 5.8 mph - N/A   Overcast
4:34 AM 49.1 °F - 47.3 °F 93% 29.67 in 1.8 mi WNW 8.1 mph - N/A   Overcast
4:54 AM 48.4 °F - 46.4 °F 93% 29.66 in 3.0 mi WNW 10.4 mph - N/A   Overcast
5:14 AM 47.8 °F - 45.7 °F 92% 29.66 in 5.0 mi WNW 5.8 mph - N/A   Overcast
5:34 AM 47.7 °F - 45.3 °F 92% 29.66 in 7.0 mi WNW 10.4 mph - N/A   Overcast
5:54 AM 47.3 °F - 44.6 °F 90% 29.66 in 7.0 mi WNW 5.8 mph - N/A   Overcast
6:14 AM 46.8 °F - 43.9 °F 90% 29.65 in 7.0 mi WNW 9.2 mph - N/A   Overcast
6:34 AM 46.4 °F 42.4 °F 43.7 °F 90% 29.66 in 5.0 mi WNW 8.1 mph - N/A   Overcast
6:54 AM 45.1 °F 39.9 °F 42.4 °F 90% 29.67 in 5.0 mi WNW 10.4 mph - N/A   Overcast
7:14 AM 44.4 °F 37.5 °F 41.9 °F 91% 29.67 in 5.0 mi WNW 15.0 mph - N/A   Overcast
7:34 AM 43.2 °F 36.2 °F 40.8 °F 91% 29.67 in 5.0 mi WNW 13.8 mph - N/A   Overcast
7:54 AM 41.9 °F 35.0 °F 39.4 °F 91% 29.68 in 4.0 mi NW 12.7 mph - N/A   Overcast
8:14 AM 41.0 °F 34.3 °F 38.7 °F 91% 29.69 in 4.0 mi WNW 11.5 mph 18.4 mph N/A   Overcast
8:34 AM 40.5 °F 32.1 °F 38.3 °F 92% 29.70 in 4.0 mi WNW 16.1 mph - N/A   Overcast
8:54 AM 40.1 °F 33.6 °F 37.4 °F 90% 29.70 in 7.0 mi WNW 10.4 mph - N/A   Overcast
9:14 AM 38.8 °F 33.2 °F 35.8 °F 89% 29.71 in 5.0 mi NNW 8.1 mph - N/A   Overcast
9:34 AM 38.5 °F 32.7 °F 35.6 °F 89% 29.70 in 5.0 mi NW 8.1 mph - N/A   Overcast
9:54 AM 38.8 °F 30.8 °F 34.5 °F 84% 29.70 in 10.0 mi NW 13.8 mph 18.4 mph N/A   Overcast
10:14 AM 38.7 °F 32.4 °F 33.8 °F 83% 29.71 in 10.0 mi NW 9.2 mph 17.3 mph N/A   Overcast
10:34 AM 38.7 °F 32.4 °F 33.4 °F 81% 29.70 in 10.0 mi NNW 9.2 mph - N/A   Overcast
10:54 AM 38.8 °F 33.8 °F 33.3 °F 80% 29.68 in 10.0 mi NW 6.9 mph - N/A   Overcast
11:14 AM 39.2 °F 33.6 °F 32.5 °F 77% 29.69 in 10.0 mi NW 8.1 mph - N/A   Overcast
11:34 AM 39.2 °F 32.5 °F 32.4 °F 76% 29.69 in 10.0 mi NW 10.4 mph - N/A   Overcast
11:54 AM 39.2 °F 33.0 °F 32.5 °F 77% 29.69 in 10.0 mi NW 9.2 mph - N/A   Overcast
12:14 PM 39.2 °F 32.5 °F 32.0 °F 75% 29.69 in 10.0 mi NW 10.4 mph - N/A   Overcast
12:34 PM 39.2 °F 31.6 °F 32.2 °F 76% 29.70 in 10.0 mi NNW 12.7 mph - N/A   Overcast
12:53 PM 38.7 °F 32.9 °F 32.5 °F 79% 29.69 in 10.0 mi NNW 8.1 mph - N/A   Overcast
1:14 PM 38.8 °F 32.6 °F 32.5 °F 78% 29.69 in 10.0 mi NW 9.2 mph - N/A   Overcast
1:34 PM 38.5 °F 30.3 °F 32.2 °F 78% 29.69 in 10.0 mi NW 13.8 mph - N/A   Overcast
1:54 PM 37.6 °F 29.1 °F 32.0 °F 80% 29.68 in 10.0 mi NW 13.8 mph 18.4 mph N/A   Overcast
2:14 PM 37.4 °F 29.8 °F 32.0 °F 81% 29.68 in 10.0 mi NW 11.5 mph - N/A   Overcast
2:34 PM 36.3 °F 27.5 °F 31.1 °F 81% 29.69 in 10.0 mi NW 13.8 mph - N/A   Overcast
2:54 PM 36.0 °F 28.5 °F 30.2 °F 80% 29.70 in 10.0 mi NW 10.4 mph - N/A   Overcast
3:14 PM 35.2 °F 25.4 °F 29.5 °F 80% 29.72 in 10.0 mi WNW 16.1 mph - N/A   Overcast
3:34 PM 34.7 °F 24.7 °F 29.8 °F 82% 29.73 in 10.0 mi WNW 16.1 mph - N/A   Overcast
3:54 PM 34.0 °F 26.0 °F 29.8 °F 85% 29.72 in 10.0 mi WNW 10.4 mph 16.1 mph N/A   Overcast
4:14 PM 33.4 °F 25.4 °F 29.5 °F 85% 29.73 in 7.0 mi WNW 10.4 mph - N/A   Overcast
4:34 PM 32.9 °F 23.2 °F 29.3 °F 87% 29.74 in 7.0 mi WNW 13.8 mph - N/A   Overcast
4:54 PM 32.9 °F 23.7 °F 28.9 °F 85% 29.76 in 7.0 mi WNW 12.7 mph 18.4 mph N/A   Overcast
5:14 PM 32.9 °F 26.7 °F 28.9 °F 85% 29.76 in 7.0 mi NW 6.9 mph - N/A   Overcast
5:34 PM 32.9 °F 26.7 °F 29.3 °F 87% 29.76 in 7.0 mi West 6.9 mph - N/A   Overcast
5:54 PM 32.7 °F - 29.3 °F 87% 29.75 in 7.0 mi Calm Calm - N/A   Overcast
6:14 PM 32.4 °F 26.0 °F 29.5 °F 89% 29.76 in 7.0 mi West 6.9 mph - N/A   Mostly Cloudy
6:34 PM 32.5 °F 24.8 °F 29.8 °F 90% 29.76 in 7.0 mi WNW 9.2 mph - N/A   Mostly Cloudy
6:54 PM 32.5 °F 23.7 °F 30.0 °F 90% 29.78 in 7.0 mi West 11.5 mph - N/A   Overcast
7:14 PM 32.5 °F 23.2 °F 29.3 °F 88% 29.79 in 7.0 mi West 12.7 mph - N/A   Overcast
7:34 PM 32.9 °F 25.3 °F 29.8 °F 88% 29.79 in 10.0 mi WNW 9.2 mph - N/A   Overcast
7:54 PM 32.9 °F 23.7 °F 29.7 °F 88% 29.80 in 10.0 mi WNW 12.7 mph - N/A   Overcast
8:14 PM 32.5 °F 23.2 °F 29.3 °F 88% 29.80 in 10.0 mi NW 12.7 mph 17.3 mph N/A   Overcast
8:34 PM 32.5 °F 24.2 °F 29.8 °F 90% 29.82 in 7.0 mi WNW 10.4 mph - N/A   Overcast
8:54 PM 32.5 °F 24.2 °F 29.7 °F 89% 29.82 in 7.0 mi WNW 10.4 mph - N/A   Overcast
9:14 PM 32.5 °F 24.8 °F 29.5 °F 88% 29.83 in 10.0 mi WNW 9.2 mph - N/A   Overcast
9:33 PM 32.5 °F 24.8 °F 29.3 °F 88% 29.84 in 10.0 mi WNW 9.2 mph - N/A   Overcast
9:54 PM 32.4 °F 24.6 °F 29.7 °F 90% 29.84 in 10.0 mi WNW 9.2 mph - N/A   Overcast
10:14 PM 32.4 °F 24.0 °F 29.5 °F 89% 29.85 in 10.0 mi WNW 10.4 mph - N/A   Overcast
10:34 PM 32.4 °F 23.5 °F 29.8 °F 90% 29.86 in 10.0 mi West 11.5 mph - N/A   Overcast
10:54 PM 32.2 °F 24.4 °F 30.0 °F 92% 29.86 in 7.0 mi WNW 9.2 mph - N/A   Overcast
11:13 PM 32.0 °F 22.5 °F 30.0 °F 92% 29.87 in 7.0 mi WNW 12.7 mph - N/A   Overcast
11:34 PM 32.0 °F 22.5 °F 30.0 °F 92% 29.88 in 7.0 mi West 12.7 mph - N/A   Overcast
11:54 PM 32.0 °F 24.2 °F 30.0 °F 92% 29.88 in 7.0 mi West 9.2 mph - N/A   Overcast